sensor_id;sensor_type;location;lat;lon;timestamp;P1;durP1;ratioP1;P2;durP2;ratioP2
23614;SDS011;11985;49.404;7.734;2023-09-08T00:03:56;5.72;;;4.93;;
23614;SDS011;11985;49.404;7.734;2023-09-08T00:08:57;6.53;;;5.18;;
23614;SDS011;11985;49.404;7.734;2023-09-08T00:13:59;8.70;;;5.53;;
23614;SDS011;11985;49.404;7.734;2023-09-08T00:19:02;11.63;;;4.72;;
23614;SDS011;11985;49.404;7.734;2023-09-08T00:24:04;7.63;;;4.88;;
23614;SDS011;11985;49.404;7.734;2023-09-08T00:29:06;6.50;;;4.63;;
23614;SDS011;11985;49.404;7.734;2023-09-08T00:34:09;6.55;;;4.45;;
23614;SDS011;11985;49.404;7.734;2023-09-08T00:39:11;9.05;;;5.25;;
23614;SDS011;11985;49.404;7.734;2023-09-08T00:44:12;7.53;;;5.45;;
23614;SDS011;11985;49.404;7.734;2023-09-08T00:49:16;7.07;;;4.75;;
23614;SDS011;11985;49.404;7.734;2023-09-08T00:54:17;8.13;;;5.03;;
23614;SDS011;11985;49.404;7.734;2023-09-08T00:59:19;6.60;;;5.03;;
23614;SDS011;11985;49.404;7.734;2023-09-08T01:04:22;6.97;;;5.05;;
23614;SDS011;11985;49.404;7.734;2023-09-08T01:09:24;9.50;;;5.03;;
23614;SDS011;11985;49.404;7.734;2023-09-08T01:14:26;7.60;;;5.80;;
23614;SDS011;11985;49.404;7.734;2023-09-08T01:19:30;7.40;;;5.00;;
23614;SDS011;11985;49.404;7.734;2023-09-08T01:24:37;7.15;;;5.22;;
23614;SDS011;11985;49.404;7.734;2023-09-08T01:29:53;9.23;;;4.97;;
23614;SDS011;11985;49.404;7.734;2023-09-08T01:34:55;9.80;;;5.20;;
23614;SDS011;11985;49.404;7.734;2023-09-08T01:39:58;7.15;;;5.07;;
23614;SDS011;11985;49.404;7.734;2023-09-08T01:45:01;10.68;;;5.20;;
23614;SDS011;11985;49.404;7.734;2023-09-08T01:50:04;9.90;;;5.65;;
23614;SDS011;11985;49.404;7.734;2023-09-08T01:55:06;7.72;;;5.63;;
23614;SDS011;11985;49.404;7.734;2023-09-08T02:00:10;9.48;;;5.60;;
23614;SDS011;11985;49.404;7.734;2023-09-08T02:05:13;8.85;;;5.18;;
23614;SDS011;11985;49.404;7.734;2023-09-08T02:10:15;6.75;;;5.38;;
23614;SDS011;11985;49.404;7.734;2023-09-08T02:15:18;7.70;;;5.43;;
23614;SDS011;11985;49.404;7.734;2023-09-08T02:20:20;8.93;;;5.68;;
23614;SDS011;11985;49.404;7.734;2023-09-08T02:25:22;9.10;;;5.25;;
23614;SDS011;11985;49.404;7.734;2023-09-08T02:30:25;12.60;;;5.65;;
23614;SDS011;11985;49.404;7.734;2023-09-08T02:35:27;12.35;;;5.72;;
23614;SDS011;11985;49.404;7.734;2023-09-08T02:40:29;7.30;;;5.22;;
23614;SDS011;11985;49.404;7.734;2023-09-08T02:45:32;7.82;;;5.00;;
23614;SDS011;11985;49.404;7.734;2023-09-08T02:50:33;7.43;;;5.35;;
23614;SDS011;11985;49.404;7.734;2023-09-08T02:55:35;7.68;;;5.60;;
23614;SDS011;11985;49.404;7.734;2023-09-08T03:00:38;8.02;;;6.07;;
23614;SDS011;11985;49.404;7.734;2023-09-08T03:05:39;10.05;;;5.45;;
23614;SDS011;11985;49.404;7.734;2023-09-08T03:10:41;8.27;;;6.03;;
23614;SDS011;11985;49.404;7.734;2023-09-08T03:15:44;6.63;;;4.95;;
23614;SDS011;11985;49.404;7.734;2023-09-08T03:20:47;11.32;;;7.28;;
23614;SDS011;11985;49.404;7.734;2023-09-08T03:25:49;8.25;;;5.80;;
23614;SDS011;11985;49.404;7.734;2023-09-08T03:30:52;11.23;;;6.28;;
23614;SDS011;11985;49.404;7.734;2023-09-08T03:35:54;7.55;;;6.32;;
23614;SDS011;11985;49.404;7.734;2023-09-08T03:40:56;7.93;;;5.53;;
23614;SDS011;11985;49.404;7.734;2023-09-08T03:45:59;9.50;;;6.15;;
23614;SDS011;11985;49.404;7.734;2023-09-08T03:51:01;9.75;;;5.80;;
23614;SDS011;11985;49.404;7.734;2023-09-08T03:56:02;8.82;;;5.60;;
23614;SDS011;11985;49.404;7.734;2023-09-08T04:01:05;9.35;;;6.15;;
23614;SDS011;11985;49.404;7.734;2023-09-08T04:06:07;11.48;;;5.88;;
23614;SDS011;11985;49.404;7.734;2023-09-08T04:11:09;8.07;;;5.50;;
23614;SDS011;11985;49.404;7.734;2023-09-08T04:16:12;7.93;;;5.40;;
23614;SDS011;11985;49.404;7.734;2023-09-08T04:21:14;8.52;;;6.07;;
23614;SDS011;11985;49.404;7.734;2023-09-08T04:26:15;8.10;;;5.45;;
23614;SDS011;11985;49.404;7.734;2023-09-08T04:31:18;9.02;;;5.60;;
23614;SDS011;11985;49.404;7.734;2023-09-08T04:36:22;8.07;;;5.35;;
23614;SDS011;11985;49.404;7.734;2023-09-08T04:41:23;7.57;;;5.25;;
23614;SDS011;11985;49.404;7.734;2023-09-08T04:46:26;10.20;;;6.47;;
23614;SDS011;11985;49.404;7.734;2023-09-08T04:51:28;10.45;;;6.25;;
23614;SDS011;11985;49.404;7.734;2023-09-08T04:56:29;8.48;;;6.18;;
23614;SDS011;11985;49.404;7.734;2023-09-08T05:01:32;9.68;;;6.13;;
23614;SDS011;11985;49.404;7.734;2023-09-08T05:06:36;14.40;;;6.18;;
23614;SDS011;11985;49.404;7.734;2023-09-08T05:11:38;9.77;;;5.97;;
23614;SDS011;11985;49.404;7.734;2023-09-08T05:16:41;8.23;;;5.68;;
23614;SDS011;11985;49.404;7.734;2023-09-08T05:21:46;9.95;;;5.57;;
23614;SDS011;11985;49.404;7.734;2023-09-08T05:26:48;11.00;;;6.43;;
23614;SDS011;11985;49.404;7.734;2023-09-08T05:31:51;10.40;;;6.22;;
23614;SDS011;11985;49.404;7.734;2023-09-08T05:36:52;9.52;;;6.50;;
23614;SDS011;11985;49.404;7.734;2023-09-08T05:41:54;6.95;;;5.45;;
23614;SDS011;11985;49.404;7.734;2023-09-08T05:46:57;7.45;;;5.82;;
23614;SDS011;11985;49.404;7.734;2023-09-08T05:51:59;7.60;;;6.20;;
23614;SDS011;11985;49.404;7.734;2023-09-08T05:57:00;8.48;;;5.72;;
23614;SDS011;11985;49.404;7.734;2023-09-08T06:02:03;9.15;;;6.43;;
23614;SDS011;11985;49.404;7.734;2023-09-08T06:07:05;8.15;;;6.15;;
23614;SDS011;11985;49.404;7.734;2023-09-08T06:12:07;9.10;;;5.78;;
23614;SDS011;11985;49.404;7.734;2023-09-08T06:17:10;12.07;;;7.05;;
23614;SDS011;11985;49.404;7.734;2023-09-08T06:22:12;7.90;;;6.43;;
23614;SDS011;11985;49.404;7.734;2023-09-08T06:27:13;7.97;;;6.10;;
23614;SDS011;11985;49.404;7.734;2023-09-08T06:32:17;13.35;;;6.18;;
23614;SDS011;11985;49.404;7.734;2023-09-08T06:37:19;13.82;;;6.35;;
23614;SDS011;11985;49.404;7.734;2023-09-08T06:42:20;8.82;;;5.95;;
23614;SDS011;11985;49.404;7.734;2023-09-08T06:47:23;9.35;;;5.68;;
23614;SDS011;11985;49.404;7.734;2023-09-08T06:52:25;7.45;;;5.35;;
23614;SDS011;11985;49.404;7.734;2023-09-08T06:57:27;8.15;;;5.30;;
23614;SDS011;11985;49.404;7.734;2023-09-08T07:02:30;6.47;;;5.22;;
23614;SDS011;11985;49.404;7.734;2023-09-08T07:07:31;6.53;;;4.90;;
23614;SDS011;11985;49.404;7.734;2023-09-08T07:12:33;8.30;;;5.15;;
23614;SDS011;11985;49.404;7.734;2023-09-08T07:17:36;7.32;;;5.40;;
23614;SDS011;11985;49.404;7.734;2023-09-08T07:22:39;11.57;;;4.72;;
23614;SDS011;11985;49.404;7.734;2023-09-08T07:27:40;6.72;;;4.80;;
23614;SDS011;11985;49.404;7.734;2023-09-08T07:32:43;7.47;;;4.85;;
23614;SDS011;11985;49.404;7.734;2023-09-08T07:37:45;8.23;;;5.03;;
23614;SDS011;11985;49.404;7.734;2023-09-08T07:42:47;8.48;;;4.78;;
23614;SDS011;11985;49.404;7.734;2023-09-08T07:47:50;8.80;;;4.85;;
23614;SDS011;11985;49.404;7.734;2023-09-08T07:52:53;4.82;;;4.25;;
23614;SDS011;11985;49.404;7.734;2023-09-08T07:57:55;8.07;;;4.78;;
23614;SDS011;11985;49.404;7.734;2023-09-08T08:03:00;7.88;;;4.68;;
23614;SDS011;11985;49.404;7.734;2023-09-08T08:08:02;6.90;;;4.72;;
23614;SDS011;11985;49.404;7.734;2023-09-08T08:13:04;7.45;;;4.80;;
23614;SDS011;11985;49.404;7.734;2023-09-08T08:18:07;5.57;;;4.07;;
23614;SDS011;11985;49.404;7.734;2023-09-08T08:23:10;6.30;;;4.75;;
23614;SDS011;11985;49.404;7.734;2023-09-08T08:28:12;7.55;;;4.93;;
23614;SDS011;11985;49.404;7.734;2023-09-08T08:33:16;9.95;;;5.07;;
23614;SDS011;11985;49.404;7.734;2023-09-08T08:38:17;9.27;;;5.07;;
23614;SDS011;11985;49.404;7.734;2023-09-08T08:43:20;6.18;;;4.18;;
23614;SDS011;11985;49.404;7.734;2023-09-08T08:48:24;6.78;;;4.07;;
23614;SDS011;11985;49.404;7.734;2023-09-08T08:53:28;7.88;;;4.20;;
23614;SDS011;11985;49.404;7.734;2023-09-08T08:58:32;5.72;;;4.47;;
23614;SDS011;11985;49.404;7.734;2023-09-08T09:03:35;11.35;;;4.95;;
23614;SDS011;11985;49.404;7.734;2023-09-08T09:13:39;5.70;;;4.55;;
23614;SDS011;11985;49.404;7.734;2023-09-08T09:18:54;8.45;;;5.00;;
23614;SDS011;11985;49.404;7.734;2023-09-08T09:23:57;5.70;;;4.50;;
23614;SDS011;11985;49.404;7.734;2023-09-08T09:28:58;6.43;;;4.22;;
23614;SDS011;11985;49.404;7.734;2023-09-08T09:34:02;9.98;;;4.43;;
23614;SDS011;11985;49.404;7.734;2023-09-08T09:39:05;9.73;;;4.50;;
23614;SDS011;11985;49.404;7.734;2023-09-08T09:44:07;6.85;;;4.65;;
23614;SDS011;11985;49.404;7.734;2023-09-08T09:49:11;7.00;;;4.57;;
23614;SDS011;11985;49.404;7.734;2023-09-08T09:54:13;11.07;;;4.80;;
23614;SDS011;11985;49.404;7.734;2023-09-08T09:59:15;5.88;;;4.40;;
23614;SDS011;11985;49.404;7.734;2023-09-08T10:04:18;7.38;;;4.55;;
23614;SDS011;11985;49.404;7.734;2023-09-08T10:09:20;6.37;;;4.63;;
23614;SDS011;11985;49.404;7.734;2023-09-08T10:14:23;10.38;;;4.47;;
23614;SDS011;11985;49.404;7.734;2023-09-08T10:19:29;6.57;;;4.70;;
23614;SDS011;11985;49.404;7.734;2023-09-08T10:24:32;6.38;;;4.75;;
23614;SDS011;11985;49.404;7.734;2023-09-08T10:29:35;8.90;;;4.50;;
23614;SDS011;11985;49.404;7.734;2023-09-08T10:34:38;6.00;;;4.20;;
23614;SDS011;11985;49.404;7.734;2023-09-08T10:39:41;7.13;;;4.38;;
23614;SDS011;11985;49.404;7.734;2023-09-08T10:44:43;5.78;;;4.10;;
23614;SDS011;11985;49.404;7.734;2023-09-08T10:49:46;7.35;;;4.60;;
23614;SDS011;11985;49.404;7.734;2023-09-08T10:54:51;6.03;;;4.10;;
23614;SDS011;11985;49.404;7.734;2023-09-08T10:59:54;7.63;;;4.63;;
23614;SDS011;11985;49.404;7.734;2023-09-08T11:04:58;9.03;;;4.00;;
23614;SDS011;11985;49.404;7.734;2023-09-08T11:09:59;5.90;;;4.43;;
23614;SDS011;11985;49.404;7.734;2023-09-08T11:15:02;6.90;;;4.35;;
23614;SDS011;11985;49.404;7.734;2023-09-08T11:20:07;4.60;;;3.97;;
23614;SDS011;11985;49.404;7.734;2023-09-08T11:25:12;6.80;;;4.22;;
23614;SDS011;11985;49.404;7.734;2023-09-08T11:30:14;5.78;;;4.18;;
23614;SDS011;11985;49.404;7.734;2023-09-08T11:35:17;8.45;;;4.53;;
23614;SDS011;11985;49.404;7.734;2023-09-08T11:40:21;6.40;;;4.20;;
23614;SDS011;11985;49.404;7.734;2023-09-08T11:45:25;4.47;;;3.90;;
23614;SDS011;11985;49.404;7.734;2023-09-08T11:50:29;7.43;;;4.68;;
23614;SDS011;11985;49.404;7.734;2023-09-08T11:55:31;6.23;;;4.40;;
23614;SDS011;11985;49.404;7.734;2023-09-08T12:00:32;7.35;;;4.80;;
23614;SDS011;11985;49.404;7.734;2023-09-08T12:05:39;5.43;;;3.88;;
23614;SDS011;11985;49.404;7.734;2023-09-08T12:10:42;5.70;;;4.20;;
23614;SDS011;11985;49.404;7.734;2023-09-08T12:15:44;5.95;;;4.28;;
23614;SDS011;11985;49.404;7.734;2023-09-08T12:20:47;7.10;;;4.38;;
23614;SDS011;11985;49.404;7.734;2023-09-08T12:26:04;4.80;;;3.88;;
23614;SDS011;11985;49.404;7.734;2023-09-08T12:31:07;5.68;;;4.47;;
23614;SDS011;11985;49.404;7.734;2023-09-08T12:36:12;7.28;;;4.13;;
23614;SDS011;11985;49.404;7.734;2023-09-08T12:41:14;5.80;;;4.50;;
23614;SDS011;11985;49.404;7.734;2023-09-08T12:46:16;5.07;;;3.85;;
23614;SDS011;11985;49.404;7.734;2023-09-08T12:51:20;7.50;;;4.60;;
23614;SDS011;11985;49.404;7.734;2023-09-08T12:56:22;8.65;;;3.75;;
23614;SDS011;11985;49.404;7.734;2023-09-08T13:01:23;5.93;;;3.95;;
23614;SDS011;11985;49.404;7.734;2023-09-08T13:06:26;4.97;;;3.92;;
23614;SDS011;11985;49.404;7.734;2023-09-08T13:11:28;4.50;;;3.80;;
23614;SDS011;11985;49.404;7.734;2023-09-08T13:16:30;4.30;;;3.90;;
23614;SDS011;11985;49.404;7.734;2023-09-08T13:21:32;5.65;;;3.97;;
23614;SDS011;11985;49.404;7.734;2023-09-08T13:26:34;7.70;;;4.25;;
23614;SDS011;11985;49.404;7.734;2023-09-08T13:31:36;5.93;;;4.35;;
23614;SDS011;11985;49.404;7.734;2023-09-08T13:36:39;5.82;;;4.07;;
23614;SDS011;11985;49.404;7.734;2023-09-08T13:41:47;5.72;;;3.70;;
23614;SDS011;11985;49.404;7.734;2023-09-08T13:46:50;8.48;;;3.83;;
23614;SDS011;11985;49.404;7.734;2023-09-08T13:51:53;5.80;;;3.83;;
23614;SDS011;11985;49.404;7.734;2023-09-08T13:56:58;7.03;;;4.00;;
23614;SDS011;11985;49.404;7.734;2023-09-08T14:02:01;6.28;;;4.10;;
23614;SDS011;11985;49.404;7.734;2023-09-08T14:07:05;6.70;;;4.00;;
23614;SDS011;11985;49.404;7.734;2023-09-08T14:12:06;6.05;;;4.20;;
23614;SDS011;11985;49.404;7.734;2023-09-08T14:17:08;6.55;;;4.07;;
23614;SDS011;11985;49.404;7.734;2023-09-08T14:22:11;7.15;;;3.72;;
23614;SDS011;11985;49.404;7.734;2023-09-08T14:27:13;5.05;;;4.07;;
23614;SDS011;11985;49.404;7.734;2023-09-08T14:32:15;8.43;;;4.13;;
23614;SDS011;11985;49.404;7.734;2023-09-08T14:37:18;4.82;;;3.90;;
23614;SDS011;11985;49.404;7.734;2023-09-08T14:42:20;8.40;;;4.32;;
23614;SDS011;11985;49.404;7.734;2023-09-08T14:47:21;6.95;;;4.30;;
23614;SDS011;11985;49.404;7.734;2023-09-08T14:52:24;7.78;;;3.90;;
23614;SDS011;11985;49.404;7.734;2023-09-08T15:02:28;6.93;;;3.88;;
23614;SDS011;11985;49.404;7.734;2023-09-08T15:07:31;9.32;;;4.07;;
23614;SDS011;11985;49.404;7.734;2023-09-08T15:12:32;9.50;;;3.90;;
23614;SDS011;11985;49.404;7.734;2023-09-08T15:17:34;4.93;;;3.78;;
23614;SDS011;11985;49.404;7.734;2023-09-08T15:22:37;5.47;;;3.63;;
23614;SDS011;11985;49.404;7.734;2023-09-08T15:27:39;6.35;;;3.58;;
23614;SDS011;11985;49.404;7.734;2023-09-08T15:32:40;5.93;;;3.50;;
23614;SDS011;11985;49.404;7.734;2023-09-08T15:37:43;7.57;;;3.67;;
23614;SDS011;11985;49.404;7.734;2023-09-08T15:42:45;11.25;;;3.92;;
23614;SDS011;11985;49.404;7.734;2023-09-08T15:47:49;6.93;;;3.83;;
23614;SDS011;11985;49.404;7.734;2023-09-08T15:52:52;5.45;;;3.47;;
23614;SDS011;11985;49.404;7.734;2023-09-08T15:57:53;4.15;;;3.33;;
23614;SDS011;11985;49.404;7.734;2023-09-08T16:02:55;7.95;;;3.50;;
23614;SDS011;11985;49.404;7.734;2023-09-08T16:07:58;7.60;;;3.35;;
23614;SDS011;11985;49.404;7.734;2023-09-08T16:12:59;7.88;;;3.50;;
23614;SDS011;11985;49.404;7.734;2023-09-08T16:18:01;8.50;;;2.85;;
23614;SDS011;11985;49.404;7.734;2023-09-08T16:23:06;4.85;;;2.90;;
23614;SDS011;11985;49.404;7.734;2023-09-08T16:28:09;5.50;;;3.15;;
23614;SDS011;11985;49.404;7.734;2023-09-08T16:33:10;6.25;;;3.60;;
23614;SDS011;11985;49.404;7.734;2023-09-08T16:38:16;5.20;;;3.10;;
23614;SDS011;11985;49.404;7.734;2023-09-08T16:43:17;4.22;;;2.88;;
23614;SDS011;11985;49.404;7.734;2023-09-08T16:48:19;4.22;;;2.65;;
23614;SDS011;11985;49.404;7.734;2023-09-08T16:53:23;3.65;;;2.75;;
23614;SDS011;11985;49.404;7.734;2023-09-08T16:58:24;5.75;;;2.78;;
23614;SDS011;11985;49.404;7.734;2023-09-08T17:03:26;6.22;;;2.90;;
23614;SDS011;11985;49.404;7.734;2023-09-08T17:08:29;6.47;;;3.67;;
23614;SDS011;11985;49.404;7.734;2023-09-08T17:13:31;6.35;;;3.90;;
23614;SDS011;11985;49.404;7.734;2023-09-08T17:18:33;8.43;;;3.83;;
23614;SDS011;11985;49.404;7.734;2023-09-08T17:23:36;6.20;;;4.10;;
23614;SDS011;11985;49.404;7.734;2023-09-08T17:28:37;5.07;;;4.28;;
23614;SDS011;11985;49.404;7.734;2023-09-08T17:33:39;6.53;;;3.92;;
23614;SDS011;11985;49.404;7.734;2023-09-08T17:38:42;7.18;;;4.25;;
23614;SDS011;11985;49.404;7.734;2023-09-08T17:43:44;9.40;;;4.70;;
23614;SDS011;11985;49.404;7.734;2023-09-08T17:48:46;6.25;;;5.25;;
23614;SDS011;11985;49.404;7.734;2023-09-08T17:53:50;10.63;;;5.00;;
23614;SDS011;11985;49.404;7.734;2023-09-08T17:58:52;11.80;;;4.57;;
23614;SDS011;11985;49.404;7.734;2023-09-08T18:03:53;10.25;;;5.00;;
23614;SDS011;11985;49.404;7.734;2023-09-08T18:08:56;11.68;;;5.28;;
23614;SDS011;11985;49.404;7.734;2023-09-08T18:13:58;7.50;;;5.35;;
23614;SDS011;11985;49.404;7.734;2023-09-08T18:19:00;8.82;;;5.93;;
23614;SDS011;11985;49.404;7.734;2023-09-08T18:24:04;8.63;;;5.45;;
23614;SDS011;11985;49.404;7.734;2023-09-08T18:29:06;9.07;;;5.43;;
23614;SDS011;11985;49.404;7.734;2023-09-08T18:34:07;10.20;;;5.90;;
23614;SDS011;11985;49.404;7.734;2023-09-08T18:39:11;10.68;;;4.97;;
23614;SDS011;11985;49.404;7.734;2023-09-08T18:44:12;8.68;;;5.50;;
23614;SDS011;11985;49.404;7.734;2023-09-08T18:49:14;7.25;;;5.50;;
23614;SDS011;11985;49.404;7.734;2023-09-08T18:54:17;9.77;;;5.90;;
23614;SDS011;11985;49.404;7.734;2023-09-08T18:59:19;11.27;;;5.95;;
23614;SDS011;11985;49.404;7.734;2023-09-08T19:04:20;6.75;;;6.03;;
23614;SDS011;11985;49.404;7.734;2023-09-08T19:09:23;9.43;;;5.80;;
23614;SDS011;11985;49.404;7.734;2023-09-08T19:14:25;7.43;;;5.82;;
23614;SDS011;11985;49.404;7.734;2023-09-08T19:19:28;9.25;;;5.90;;
23614;SDS011;11985;49.404;7.734;2023-09-08T19:24:31;10.38;;;6.05;;
23614;SDS011;11985;49.404;7.734;2023-09-08T19:29:33;8.38;;;6.00;;
23614;SDS011;11985;49.404;7.734;2023-09-08T19:34:34;9.55;;;6.07;;
23614;SDS011;11985;49.404;7.734;2023-09-08T19:39:37;6.93;;;5.82;;
23614;SDS011;11985;49.404;7.734;2023-09-08T19:44:39;8.88;;;6.53;;
23614;SDS011;11985;49.404;7.734;2023-09-08T19:49:40;9.48;;;7.45;;
23614;SDS011;11985;49.404;7.734;2023-09-08T19:54:44;10.20;;;6.57;;
23614;SDS011;11985;49.404;7.734;2023-09-08T19:59:46;9.40;;;6.07;;
23614;SDS011;11985;49.404;7.734;2023-09-08T20:04:47;11.60;;;6.50;;
23614;SDS011;11985;49.404;7.734;2023-09-08T20:09:50;8.88;;;6.32;;
23614;SDS011;11985;49.404;7.734;2023-09-08T20:14:52;9.18;;;6.70;;
23614;SDS011;11985;49.404;7.734;2023-09-08T20:19:53;12.55;;;6.53;;
23614;SDS011;11985;49.404;7.734;2023-09-08T20:24:56;10.23;;;6.45;;
23614;SDS011;11985;49.404;7.734;2023-09-08T20:29:58;14.05;;;8.15;;
23614;SDS011;11985;49.404;7.734;2023-09-08T20:35:00;8.30;;;6.45;;
23614;SDS011;11985;49.404;7.734;2023-09-08T20:40:04;7.95;;;6.13;;
23614;SDS011;11985;49.404;7.734;2023-09-08T20:50:09;8.27;;;6.00;;
23614;SDS011;11985;49.404;7.734;2023-09-08T20:55:12;10.20;;;6.57;;
23614;SDS011;11985;49.404;7.734;2023-09-08T21:00:14;12.52;;;5.95;;
23614;SDS011;11985;49.404;7.734;2023-09-08T21:05:15;10.18;;;6.10;;
23614;SDS011;11985;49.404;7.734;2023-09-08T21:10:19;11.10;;;5.70;;
23614;SDS011;11985;49.404;7.734;2023-09-08T21:15:20;9.85;;;7.50;;
23614;SDS011;11985;49.404;7.734;2023-09-08T21:20:22;8.77;;;6.25;;
23614;SDS011;11985;49.404;7.734;2023-09-08T21:25:25;9.18;;;5.95;;
23614;SDS011;11985;49.404;7.734;2023-09-08T21:30:26;8.23;;;6.20;;
23614;SDS011;11985;49.404;7.734;2023-09-08T21:35:28;7.60;;;6.15;;
23614;SDS011;11985;49.404;7.734;2023-09-08T21:40:32;8.68;;;5.93;;
23614;SDS011;11985;49.404;7.734;2023-09-08T21:45:33;9.07;;;6.68;;
23614;SDS011;11985;49.404;7.734;2023-09-08T21:50:35;8.50;;;6.03;;
23614;SDS011;11985;49.404;7.734;2023-09-08T21:55:38;9.50;;;6.95;;
23614;SDS011;11985;49.404;7.734;2023-09-08T22:00:40;9.95;;;6.75;;
23614;SDS011;11985;49.404;7.734;2023-09-08T22:05:42;10.15;;;6.35;;
23614;SDS011;11985;49.404;7.734;2023-09-08T22:10:45;12.23;;;6.22;;
23614;SDS011;11985;49.404;7.734;2023-09-08T22:15:46;8.82;;;7.05;;
23614;SDS011;11985;49.404;7.734;2023-09-08T22:20:52;12.25;;;6.45;;
23614;SDS011;11985;49.404;7.734;2023-09-08T22:25:55;11.13;;;5.75;;
23614;SDS011;11985;49.404;7.734;2023-09-08T22:30:57;10.70;;;6.55;;
23614;SDS011;11985;49.404;7.734;2023-09-08T22:35:58;12.25;;;6.78;;
23614;SDS011;11985;49.404;7.734;2023-09-08T22:41:01;8.57;;;6.28;;
23614;SDS011;11985;49.404;7.734;2023-09-08T22:46:05;10.52;;;6.80;;
23614;SDS011;11985;49.404;7.734;2023-09-08T22:51:07;8.97;;;6.90;;
23614;SDS011;11985;49.404;7.734;2023-09-08T22:56:10;9.48;;;7.28;;
23614;SDS011;11985;49.404;7.734;2023-09-08T23:01:13;9.18;;;6.78;;
23614;SDS011;11985;49.404;7.734;2023-09-08T23:06:14;8.60;;;7.00;;
23614;SDS011;11985;49.404;7.734;2023-09-08T23:11:17;9.98;;;7.25;;
23614;SDS011;11985;49.404;7.734;2023-09-08T23:16:19;9.88;;;7.70;;
23614;SDS011;11985;49.404;7.734;2023-09-08T23:21:22;10.23;;;7.18;;
23614;SDS011;11985;49.404;7.734;2023-09-08T23:26:25;10.18;;;6.70;;
23614;SDS011;11985;49.404;7.734;2023-09-08T23:36:29;9.52;;;7.30;;
23614;SDS011;11985;49.404;7.734;2023-09-08T23:41:33;16.40;;;7.68;;
23614;SDS011;11985;49.404;7.734;2023-09-08T23:46:34;10.90;;;7.80;;
23614;SDS011;11985;49.404;7.734;2023-09-08T23:51:36;9.30;;;7.28;;
23614;SDS011;11985;49.404;7.734;2023-09-08T23:56:39;11.27;;;7.55;;
